Terminal Aerodrome Forecast
Issued by NWS

Home | Current Version | Previous Version | Text Only | Print | Product List | Glossary On
Versions: 1 2 3 4 5 6 7 8 9 10 11 12 13 14 15 16 17 18 19
000
FTUS44 KEWX 210237 AAA
TAFSSF
TAF AMD
KSSF 210237Z 2103/2124 14013KT P6SM FEW070
     FM210400 14010KT P6SM SCT040
     FM210900 14008KT P6SM SCT012=

USA.gov is the U.S. government's official web portal to all federal, state and local government web resources and services.